Time;durP1;ratioP1;P1;durP2;ratioP2;P2;SDS_P1;SDS_P2;PMS_P1;PMS_P2;Temp;Humidity;BMP_temperature;BMP_pressure;BME280_temperature;BME280_humidity;BME280_pressure;Samples;Min_cycle;Max_cycle;Signal;HPM_P1;HPM_P2
2021/07/19 00:02:14;;;;;;;3.17;2.97;;;20.80;99.90;;;;;;6232936;23;20417;-84
2021/07/19 00:04:47;;;;;;;3.07;2.87;;;20.80;99.90;;;;;;6233134;23;20428;-84
2021/07/19 00:07:17;;;;;;;3.63;3.33;;;20.70;99.90;;;;;;6233704;23;20418;-83
2021/07/19 00:09:47;;;;;;;4.33;3.93;;;20.70;99.90;;;;;;6233258;23;20982;-85
2021/07/19 00:12:18;;;;;;;3.60;3.40;;;20.70;99.90;;;;;;6233940;23;20427;-84
2021/07/19 00:14:48;;;;;;;3.80;3.50;;;20.60;99.90;;;;;;6230832;23;20476;-83
2021/07/19 00:17:19;;;;;;;3.57;3.27;;;20.50;99.90;;;;;;6233942;23;20429;-84
2021/07/19 00:19:50;;;;;;;3.80;3.60;;;20.40;99.90;;;;;;6233015;23;20417;-83
2021/07/19 00:22:21;;;;;;;3.40;3.20;;;20.40;99.90;;;;;;6233093;23;20446;-83
2021/07/19 00:24:52;;;;;;;4.23;3.83;;;20.30;99.90;;;;;;6233029;23;20492;-84
2021/07/19 00:27:22;;;;;;;4.00;3.60;;;20.30;99.90;;;;;;6233498;23;20420;-83
2021/07/19 00:29:52;;;;;;;3.67;3.37;;;20.30;99.90;;;;;;6233692;23;20431;-84
2021/07/19 00:32:22;;;;;;;5.43;3.80;;;20.20;99.90;;;;;;6233699;23;20497;-83
2021/07/19 00:34:54;;;;;;;3.70;3.50;;;20.20;99.90;;;;;;6232177;23;20449;-84
2021/07/19 00:37:24;;;;;;;4.70;4.30;;;20.10;99.90;;;;;;6233417;23;20407;-83
2021/07/19 00:39:53;;;;;;;5.97;3.60;;;20.00;99.90;;;;;;6233204;23;20455;-82
2021/07/19 00:42:23;;;;;;;4.30;4.00;;;20.00;99.90;;;;;;6233730;23;20421;-84
2021/07/19 00:44:54;;;;;;;4.10;3.67;;;19.90;99.90;;;;;;6232051;23;20901;-83
2021/07/19 00:47:23;;;;;;;4.03;3.73;;;19.90;99.90;;;;;;6234620;23;20420;-83
2021/07/19 00:49:57;;;;;;;5.77;4.00;;;19.80;99.90;;;;;;6235407;23;20439;-84
2021/07/19 00:52:27;;;;;;;4.33;3.90;;;19.80;99.90;;;;;;6234336;23;20437;-84
2021/07/19 00:54:57;;;;;;;5.00;3.63;;;19.70;99.90;;;;;;6234733;23;20462;-83
2021/07/19 00:57:28;;;;;;;4.77;3.80;;;19.70;99.90;;;;;;6235177;23;20468;-84
2021/07/19 00:59:59;;;;;;;4.00;3.70;;;19.60;99.90;;;;;;6234069;23;20427;-83
2021/07/19 01:02:30;;;;;;;4.73;4.33;;;19.60;99.90;;;;;;6234884;23;20426;-83
2021/07/19 01:05:06;;;;;;;3.70;3.40;;;19.50;99.90;;;;;;6236112;23;20429;-83
2021/07/19 01:07:36;;;;;;;4.30;3.90;;;19.40;99.90;;;;;;6235047;23;20416;-84
2021/07/19 01:10:08;;;;;;;4.10;3.70;;;19.40;99.90;;;;;;6234014;23;20483;-82
2021/07/19 01:12:39;;;;;;;4.30;4.00;;;19.30;99.90;;;;;;6233715;23;20510;-83
2021/07/19 01:15:10;;;;;;;3.10;2.90;;;19.20;99.90;;;;;;6234139;23;20452;-84
2021/07/19 01:17:38;;;;;;;4.87;3.73;;;19.20;99.90;;;;;;6234804;23;20416;-83
2021/07/19 01:20:10;;;;;;;3.87;3.67;;;19.10;99.90;;;;;;6234987;23;20405;-82
2021/07/19 01:23:16;;;;;;;3.47;3.27;;;19.10;99.90;;;;;;6234163;23;20428;-84
2021/07/19 01:26:09;;;;;;;3.90;3.60;;;19.10;99.90;;;;;;6235033;23;20450;-83
2021/07/19 01:28:43;;;;;;;4.70;4.30;;;19.10;99.90;;;;;;6234775;23;20501;-83
2021/07/19 01:31:16;;;;;;;3.90;3.60;;;19.00;99.90;;;;;;6234706;23;20419;-83
2021/07/19 01:33:51;;;;;;;5.20;4.37;;;18.90;99.90;;;;;;6234556;23;20805;-83
2021/07/19 01:36:25;;;;;;;4.33;4.03;;;18.90;99.90;;;;;;6233743;23;20435;-82
2021/07/19 01:38:56;;;;;;;4.63;4.20;;;18.80;99.90;;;;;;6234266;23;20419;-82
2021/07/19 01:41:27;;;;;;;4.97;3.57;;;18.80;99.90;;;;;;6234889;23;20419;-83
2021/07/19 01:44:01;;;;;;;3.63;3.40;;;18.80;99.90;;;;;;6235006;23;20479;-83
2021/07/19 01:46:32;;;;;;;3.73;3.43;;;18.70;99.90;;;;;;6235208;23;20463;-84
2021/07/19 01:49:02;;;;;;;4.20;3.80;;;18.70;99.90;;;;;;6235127;23;20412;-83
2021/07/19 01:51:31;;;;;;;4.40;3.33;;;18.70;99.90;;;;;;6234670;23;20426;-83
2021/07/19 01:54:02;;;;;;;4.90;4.40;;;18.60;99.90;;;;;;6234163;23;20412;-83
2021/07/19 01:56:32;;;;;;;4.80;4.40;;;18.60;99.90;;;;;;6234135;23;20435;-82
2021/07/19 01:59:05;;;;;;;3.87;3.57;;;18.50;99.90;;;;;;6234489;23;20414;-83
2021/07/19 02:01:36;;;;;;;3.73;3.43;;;18.50;99.90;;;;;;6234307;23;20414;-83
2021/07/19 02:04:06;;;;;;;3.37;3.10;;;18.50;99.90;;;;;;6209345;23;20403;-83
2021/07/19 02:06:36;;;;;;;3.60;3.30;;;18.40;99.90;;;;;;6234005;23;20415;-82
2021/07/19 02:09:06;;;;;;;4.50;3.90;;;18.40;99.90;;;;;;6233710;23;20419;-83
2021/07/19 02:11:38;;;;;;;4.90;4.47;;;18.40;99.90;;;;;;6233841;23;20416;-83
2021/07/19 02:14:09;;;;;;;3.90;3.60;;;18.30;99.90;;;;;;6237253;23;20419;-81
2021/07/19 02:16:42;;;;;;;4.13;3.73;;;18.40;99.90;;;;;;6236823;23;20416;-83
2021/07/19 02:19:13;;;;;;;4.97;4.47;;;18.30;99.90;;;;;;6236023;23;20424;-83
2021/07/19 02:21:43;;;;;;;4.50;4.20;;;18.30;99.90;;;;;;6233896;23;20423;-83
2021/07/19 02:24:14;;;;;;;4.07;3.67;;;18.30;99.90;;;;;;6233923;23;20413;-84
2021/07/19 02:26:44;;;;;;;4.57;4.00;;;18.30;99.90;;;;;;6233568;23;20459;-84
2021/07/19 02:29:17;;;;;;;4.33;3.93;;;18.30;99.90;;;;;;6234415;23;20420;-81
2021/07/19 02:31:47;;;;;;;3.70;3.40;;;18.30;99.90;;;;;;6235208;23;20423;-83
2021/07/19 02:34:18;;;;;;;4.50;3.67;;;18.30;99.90;;;;;;6234404;23;20428;-83
2021/07/19 02:36:49;;;;;;;6.10;3.97;;;18.20;99.90;;;;;;6234322;23;20424;-83
2021/07/19 02:39:20;;;;;;;5.53;4.10;;;18.20;99.90;;;;;;6233639;23;20420;-83
2021/07/19 02:41:51;;;;;;;6.40;4.43;;;18.10;99.90;;;;;;6234048;23;20418;-82
2021/07/19 02:44:25;;;;;;;4.73;4.10;;;18.10;99.90;;;;;;6232736;23;20484;-83
2021/07/19 02:46:55;;;;;;;4.20;3.80;;;18.00;99.90;;;;;;6234120;23;20442;-83
2021/07/19 02:49:27;;;;;;;4.33;4.03;;;18.00;99.90;;;;;;6233640;23;20404;-83
2021/07/19 02:51:56;;;;;;;4.73;4.43;;;18.00;99.90;;;;;;6233459;23;20804;-82
2021/07/19 02:54:27;;;;;;;4.13;3.23;;;18.00;99.90;;;;;;6233786;23;20416;-82
2021/07/19 02:56:56;;;;;;;4.43;4.03;;;18.00;99.90;;;;;;6233948;23;20911;-83
2021/07/19 02:59:28;;;;;;;3.63;3.33;;;18.00;99.90;;;;;;6233823;23;20415;-83
2021/07/19 03:02:00;;;;;;;3.33;3.13;;;18.00;99.90;;;;;;6233131;23;20444;-86
2021/07/19 03:04:31;;;;;;;4.47;4.17;;;18.00;99.90;;;;;;6233614;23;20433;-84
2021/07/19 03:07:04;;;;;;;4.07;3.77;;;18.00;99.90;;;;;;6233352;23;20430;-83
2021/07/19 03:09:39;;;;;;;4.20;3.83;;;17.90;99.90;;;;;;6233542;23;20428;-84
2021/07/19 03:12:08;;;;;;;4.53;4.23;;;17.90;99.90;;;;;;6233261;23;20409;-86
2021/07/19 03:14:41;;;;;;;4.37;4.03;;;17.90;99.90;;;;;;6232140;23;20444;-86
2021/07/19 03:17:11;;;;;;;4.83;4.43;;;17.90;99.90;;;;;;6232620;23;20424;-85
2021/07/19 03:19:41;;;;;;;3.87;3.57;;;17.90;99.90;;;;;;6233065;23;20465;-82
2021/07/19 03:22:12;;;;;;;4.63;4.23;;;17.80;99.90;;;;;;6233406;23;20424;-83
2021/07/19 03:24:43;;;;;;;4.70;4.40;;;17.80;99.90;;;;;;6232587;23;20490;-83
2021/07/19 03:27:14;;;;;;;4.40;4.00;;;17.80;99.90;;;;;;6233415;23;20424;-83
2021/07/19 03:29:46;;;;;;;4.00;3.67;;;17.80;99.90;;;;;;6232585;23;20423;-83
2021/07/19 03:32:18;;;;;;;4.60;4.10;;;17.80;99.90;;;;;;6232131;23;20422;-83
2021/07/19 03:34:48;;;;;;;4.40;4.10;;;17.80;99.90;;;;;;6233273;23;20491;-83
2021/07/19 03:37:19;;;;;;;4.57;4.17;;;17.80;99.90;;;;;;6239799;23;20412;-81
2021/07/19 03:39:49;;;;;;;4.40;4.00;;;17.80;99.90;;;;;;6242741;23;20411;-81
2021/07/19 03:42:18;;;;;;;4.90;4.50;;;17.70;99.90;;;;;;6242176;22;20403;-80
2021/07/19 03:44:50;;;;;;;8.10;4.80;;;17.80;99.90;;;;;;6241924;23;20507;-80
2021/07/19 03:47:19;;;;;;;4.10;3.87;;;17.70;99.90;;;;;;6242472;22;20414;-80
2021/07/19 03:49:49;;;;;;;5.37;4.97;;;17.70;99.90;;;;;;6242795;23;20401;-81
2021/07/19 03:52:18;;;;;;;3.93;3.63;;;17.70;99.90;;;;;;6242396;22;20426;-80
2021/07/19 03:54:49;;;;;;;5.63;3.83;;;17.80;99.90;;;;;;6242498;22;20454;-80
2021/07/19 03:57:19;;;;;;;4.87;3.83;;;17.70;99.90;;;;;;6242551;23;20430;-80
2021/07/19 03:59:51;;;;;;;4.27;3.97;;;17.70;99.90;;;;;;6242314;22;20429;-80
2021/07/19 04:02:21;;;;;;;5.70;4.93;;;17.70;99.90;;;;;;6242790;22;20472;-80
2021/07/19 04:05:02;;;;;;;4.77;4.37;;;17.70;99.90;;;;;;6242752;22;20419;-80
2021/07/19 04:07:31;;;;;;;4.30;4.00;;;17.70;99.90;;;;;;6242703;23;20407;-81
2021/07/19 04:10:01;;;;;;;4.80;4.40;;;17.70;99.90;;;;;;6242366;22;20440;-80
2021/07/19 04:12:30;;;;;;;4.80;4.30;;;17.80;99.90;;;;;;6242196;22;20420;-80
2021/07/19 04:15:02;;;;;;;5.03;4.63;;;17.80;99.90;;;;;;6242469;22;20423;-80
2021/07/19 04:17:32;;;;;;;4.70;4.30;;;17.80;99.90;;;;;;6242949;22;20441;-81
2021/07/19 04:20:03;;;;;;;5.03;4.63;;;17.80;99.90;;;;;;6243286;22;20388;-80
2021/07/19 04:22:33;;;;;;;6.57;6.00;;;17.80;99.90;;;;;;6243903;22;20403;-80
2021/07/19 04:25:01;;;;;;;6.60;6.00;;;17.90;99.90;;;;;;6244264;22;20399;-80
2021/07/19 04:27:30;;;;;;;6.30;5.30;;;17.80;99.90;;;;;;6244387;22;20487;-80
2021/07/19 04:30:01;;;;;;;5.80;5.30;;;17.80;99.90;;;;;;6244527;22;20411;-80
2021/07/19 04:32:30;;;;;;;5.40;5.00;;;17.80;99.90;;;;;;6244171;23;20405;-81
2021/07/19 04:34:59;;;;;;;5.20;4.80;;;17.90;99.90;;;;;;6244498;23;20503;-80
2021/07/19 04:37:29;;;;;;;5.37;4.93;;;17.80;99.90;;;;;;6244270;23;20399;-80
2021/07/19 04:39:58;;;;;;;5.13;4.73;;;17.90;99.90;;;;;;6244266;22;20417;-80
2021/07/19 04:42:27;;;;;;;6.27;5.37;;;17.90;99.90;;;;;;6244247;22;20424;-80
2021/07/19 04:44:56;;;;;;;5.00;4.70;;;17.90;99.90;;;;;;6243454;23;20432;-81
2021/07/19 04:47:27;;;;;;;4.17;3.87;;;17.90;99.90;;;;;;6239682;23;20441;-81
2021/07/19 04:49:55;;;;;;;5.43;5.03;;;17.90;99.90;;;;;;6238539;23;20410;-82
2021/07/19 04:52:23;;;;;;;4.70;4.30;;;18.00;99.90;;;;;;6238651;23;20418;-83
2021/07/19 04:54:52;;;;;;;5.37;4.97;;;18.00;99.90;;;;;;6241280;23;20455;-82
2021/07/19 04:57:21;;;;;;;7.13;4.97;;;18.10;99.90;;;;;;6240558;23;20627;-81
2021/07/19 04:59:52;;;;;;;5.07;4.60;;;18.10;99.90;;;;;;6241197;23;20415;-81
2021/07/19 05:02:27;;;;;;;4.40;4.00;;;18.20;99.90;;;;;;6241921;23;20399;-82
2021/07/19 05:04:58;;;;;;;5.60;4.27;;;18.30;99.90;;;;;;6241771;22;20423;-82
2021/07/19 05:07:32;;;;;;;5.60;5.10;;;18.30;99.90;;;;;;6240771;23;20427;-82
2021/07/19 05:10:02;;;;;;;4.60;4.10;;;18.30;99.90;;;;;;6242119;23;20430;-83
2021/07/19 05:12:34;;;;;;;6.07;4.20;;;18.40;99.90;;;;;;6242059;23;20409;-82
2021/07/19 05:15:04;;;;;;;4.20;3.90;;;18.50;99.90;;;;;;6242034;23;20440;-85
2021/07/19 05:17:36;;;;;;;4.77;4.37;;;18.60;99.90;;;;;;6241933;23;20416;-81
2021/07/19 05:20:06;;;;;;;6.80;4.83;;;18.70;99.90;;;;;;6242057;23;20475;-82
2021/07/19 05:22:34;;;;;;;6.03;5.53;;;18.70;99.90;;;;;;6240163;23;20447;-84
2021/07/19 05:25:02;;;;;;;5.37;4.87;;;18.80;99.90;;;;;;6241235;23;20443;-82
2021/07/19 05:27:31;;;;;;;6.00;4.53;;;18.80;99.90;;;;;;6242611;23;20420;-83
2021/07/19 05:30:00;;;;;;;5.53;4.97;;;18.90;99.90;;;;;;6241598;23;20440;-81
2021/07/19 05:32:29;;;;;;;5.23;4.73;;;18.90;99.90;;;;;;6241241;23;20476;-82
2021/07/19 05:34:59;;;;;;;5.07;4.67;;;19.00;99.90;;;;;;6240909;23;20429;-83
2021/07/19 05:37:29;;;;;;;5.47;5.07;;;19.00;99.90;;;;;;6241588;23;20413;-83
2021/07/19 05:39:57;;;;;;;5.20;4.17;;;19.10;99.90;;;;;;6240126;23;20393;-85
2021/07/19 05:42:24;;;;;;;6.07;5.10;;;19.10;99.90;;;;;;6229293;23;20435;-86
2021/07/19 05:44:51;;;;;;;6.33;4.73;;;19.10;99.90;;;;;;6225383;23;20446;-86
2021/07/19 05:47:18;;;;;;;5.00;4.63;;;19.10;99.90;;;;;;6223605;23;20502;-85
2021/07/19 05:49:45;;;;;;;5.40;4.67;;;19.20;99.90;;;;;;6223871;23;20411;-86
2021/07/19 05:52:13;;;;;;;5.33;4.83;;;19.20;99.90;;;;;;6224248;23;20494;-86
2021/07/19 05:54:40;;;;;;;5.30;4.87;;;19.20;99.90;;;;;;6224695;23;20439;-86
2021/07/19 05:57:06;;;;;;;6.60;5.37;;;19.30;99.90;;;;;;6224345;23;20415;-85
2021/07/19 05:59:33;;;;;;;5.07;4.57;;;19.30;99.90;;;;;;6224763;23;20415;-85
2021/07/19 06:02:00;;;;;;;5.53;4.73;;;19.30;99.90;;;;;;6224590;23;20420;-85
2021/07/19 06:04:27;;;;;;;5.07;4.67;;;19.40;99.90;;;;;;6224578;23;20425;-85
2021/07/19 06:06:53;;;;;;;4.87;4.47;;;19.50;99.90;;;;;;6223472;23;20452;-86
2021/07/19 06:09:22;;;;;;;9.30;4.87;;;19.60;99.90;;;;;;6224064;23;20444;-86
2021/07/19 06:11:48;;;;;;;7.10;4.57;;;19.70;99.90;;;;;;6224006;23;20416;-85
2021/07/19 06:14:15;;;;;;;4.70;4.17;;;19.80;99.90;;;;;;6221527;23;20434;-83
2021/07/19 06:16:43;;;;;;;5.83;4.97;;;19.90;99.90;;;;;;6225556;23;20425;-83
2021/07/19 06:19:10;;;;;;;5.07;4.63;;;20.00;99.90;;;;;;6224723;23;20408;-83
2021/07/19 06:21:36;;;;;;;5.17;4.67;;;20.00;99.90;;;;;;6225007;23;20418;-82
2021/07/19 06:24:03;;;;;;;6.30;4.57;;;19.90;99.90;;;;;;6224536;23;20408;-83
2021/07/19 06:26:32;;;;;;;5.70;5.20;;;20.00;99.90;;;;;;6223501;23;20458;-82
2021/07/19 06:28:59;;;;;;;5.00;4.60;;;20.10;99.90;;;;;;6223669;23;20401;-83
2021/07/19 06:31:26;;;;;;;5.27;4.87;;;20.10;99.90;;;;;;6223930;23;20452;-83
2021/07/19 06:33:53;;;;;;;4.70;4.37;;;20.20;99.90;;;;;;6225475;23;20475;-83
2021/07/19 06:36:19;;;;;;;4.80;4.50;;;20.20;99.90;;;;;;6223793;23;20458;-83
2021/07/19 06:38:46;;;;;;;5.97;5.50;;;20.30;99.90;;;;;;6227864;23;20869;-81
2021/07/19 06:41:14;;;;;;;6.67;5.60;;;20.30;99.90;;;;;;6225131;23;20562;-83
2021/07/19 06:43:42;;;;;;;5.90;5.40;;;20.40;99.90;;;;;;6222978;23;20423;-83
2021/07/19 06:46:09;;;;;;;5.50;4.97;;;20.50;99.90;;;;;;6225318;23;20459;-83
2021/07/19 06:48:36;;;;;;;5.50;5.10;;;20.50;99.90;;;;;;6227039;23;20412;-83
2021/07/19 06:51:04;;;;;;;5.50;5.10;;;20.60;99.90;;;;;;6233202;23;20465;-82
2021/07/19 06:53:31;;;;;;;6.03;5.40;;;20.70;99.90;;;;;;6238035;23;20415;-81
2021/07/19 06:55:58;;;;;;;5.23;4.80;;;20.70;99.90;;;;;;6239158;23;20452;-81
2021/07/19 06:58:24;;;;;;;6.40;4.87;;;20.90;99.90;;;;;;6238716;23;20417;-82
2021/07/19 07:00:52;;;;;;;5.50;5.10;;;21.00;99.90;;;;;;6239093;23;20397;-81
2021/07/19 07:03:19;;;;;;;5.27;4.63;;;21.10;99.90;;;;;;6239436;23;20409;-81
2021/07/19 07:05:46;;;;;;;6.70;5.50;;;21.20;99.90;;;;;;6240456;23;20478;-81
2021/07/19 07:08:12;;;;;;;4.37;4.00;;;21.30;99.90;;;;;;6239777;23;20418;-82
2021/07/19 07:10:39;;;;;;;5.30;4.80;;;21.40;99.90;;;;;;6237065;23;20492;-82
2021/07/19 07:13:09;;;;;;;6.20;5.60;;;21.50;99.90;;;;;;6234079;23;21027;-82
2021/07/19 07:15:36;;;;;;;7.63;5.40;;;21.50;99.90;;;;;;6233628;23;20456;-80
2021/07/19 07:18:06;;;;;;;5.13;4.63;;;21.60;99.90;;;;;;6231403;23;20535;-79
2021/07/19 07:20:33;;;;;;;4.87;4.50;;;21.70;99.90;;;;;;6223531;23;20399;-80
2021/07/19 07:22:59;;;;;;;5.10;4.77;;;21.80;99.90;;;;;;6224464;23;20410;-78
2021/07/19 07:25:26;;;;;;;5.40;5.00;;;21.80;99.90;;;;;;6224711;23;20435;-81
2021/07/19 07:27:53;;;;;;;5.37;4.80;;;21.90;99.90;;;;;;6235525;23;20477;-83
2021/07/19 07:30:21;;;;;;;4.67;4.30;;;22.10;99.90;;;;;;6239519;23;20415;-83
2021/07/19 07:32:49;;;;;;;5.63;4.83;;;22.00;99.90;;;;;;6239962;23;20407;-84
2021/07/19 07:35:17;;;;;;;5.10;4.70;;;22.20;99.90;;;;;;6239288;23;20496;-84
2021/07/19 07:37:44;;;;;;;6.17;5.77;;;22.20;99.90;;;;;;6239850;23;20402;-82
2021/07/19 07:40:13;;;;;;;5.90;5.30;;;22.40;99.90;;;;;;6239793;23;20478;-84
2021/07/19 07:42:40;;;;;;;5.37;4.93;;;22.40;99.90;;;;;;6225647;23;20467;-78
2021/07/19 07:45:09;;;;;;;5.90;5.40;;;22.50;99.90;;;;;;6224308;23;20482;-81
2021/07/19 07:47:37;;;;;;;4.80;4.30;;;22.50;99.90;;;;;;6236966;23;20508;-83
2021/07/19 07:50:05;;;;;;;4.83;4.53;;;22.50;99.90;;;;;;6231963;23;20414;-82
2021/07/19 07:52:33;;;;;;;5.17;4.87;;;22.50;99.90;;;;;;6228222;23;20412;-80
2021/07/19 07:54:59;;;;;;;5.27;4.97;;;22.60;99.90;;;;;;6229354;23;20497;-81
2021/07/19 07:57:26;;;;;;;5.90;5.40;;;22.70;99.90;;;;;;6243586;23;20466;-81
2021/07/19 07:59:53;;;;;;;6.53;5.93;;;22.70;99.90;;;;;;6239265;23;20438;-83
2021/07/19 08:02:20;;;;;;;5.73;5.30;;;22.70;99.90;;;;;;6229379;23;20471;-80
2021/07/19 08:04:47;;;;;;;5.47;5.07;;;22.80;99.90;;;;;;6226157;23;21053;-79
2021/07/19 08:07:13;;;;;;;5.97;5.37;;;22.90;99.90;;;;;;6238080;23;20454;-82
2021/07/19 08:09:41;;;;;;;5.63;5.13;;;22.90;99.90;;;;;;6240068;23;20407;-82
2021/07/19 08:12:09;;;;;;;6.27;5.70;;;23.00;99.90;;;;;;6234783;23;20419;-79
2021/07/19 08:14:36;;;;;;;5.73;5.20;;;23.00;99.90;;;;;;6232818;23;20436;-82
2021/07/19 08:17:03;;;;;;;5.80;5.30;;;23.00;99.90;;;;;;6237862;23;20772;-83
2021/07/19 08:19:33;;;;;;;4.83;4.43;;;23.00;99.90;;;;;;6240627;23;20389;-83
2021/07/19 08:22:00;;;;;;;6.27;5.73;;;23.10;99.90;;;;;;6240051;23;20409;-84
2021/07/19 08:24:27;;;;;;;5.53;5.03;;;23.10;99.90;;;;;;6241271;23;20492;-83
2021/07/19 08:26:55;;;;;;;5.33;4.93;;;23.20;99.90;;;;;;6242898;23;20508;-86
2021/07/19 08:29:22;;;;;;;5.50;5.00;;;23.20;99.90;;;;;;6242296;23;20435;-84
2021/07/19 08:31:48;;;;;;;5.33;4.83;;;23.20;99.90;;;;;;6241843;23;20807;-82
2021/07/19 08:34:15;;;;;;;6.50;5.57;;;23.20;99.90;;;;;;6234139;23;20414;-82
2021/07/19 08:36:42;;;;;;;6.27;5.77;;;23.20;99.90;;;;;;6241845;23;20404;-84
2021/07/19 08:39:09;;;;;;;5.90;5.30;;;23.30;99.90;;;;;;6240251;23;20409;-86
2021/07/19 08:41:36;;;;;;;7.30;6.70;;;23.30;99.90;;;;;;6241018;23;20393;-85
2021/07/19 08:44:07;;;;;;;5.57;5.17;;;23.30;99.90;;;;;;6241714;23;20437;-86
2021/07/19 08:46:35;;;;;;;5.70;5.30;;;23.30;99.90;;;;;;6237303;23;20488;-83
2021/07/19 08:49:02;;;;;;;5.43;4.97;;;23.40;99.90;;;;;;6224672;23;20439;-80
2021/07/19 08:51:30;;;;;;;5.57;5.07;;;23.50;99.90;;;;;;6225288;23;20419;-85
2021/07/19 08:53:59;;;;;;;6.00;5.50;;;23.60;99.90;;;;;;6229626;23;20744;-86
2021/07/19 08:56:28;;;;;;;6.83;6.20;;;23.70;99.90;;;;;;6229234;23;20428;-85
2021/07/19 08:58:54;;;;;;;8.77;6.70;;;23.70;99.90;;;;;;6226434;23;20435;-83
2021/07/19 09:01:23;;;;;;;6.77;5.53;;;23.80;99.90;;;;;;6223018;23;20821;-84
2021/07/19 09:03:49;;;;;;;6.43;5.77;;;23.80;99.90;;;;;;6225041;23;20412;-82
2021/07/19 09:06:16;;;;;;;8.53;5.60;;;23.90;99.90;;;;;;6225376;23;20428;-82
2021/07/19 09:08:48;;;;;;;4.97;4.57;;;23.90;99.90;;;;;;6224738;23;20487;-81
2021/07/19 09:11:15;;;;;;;5.50;5.07;;;24.00;99.90;;;;;;6226676;23;20404;-84
2021/07/19 09:13:57;;;;;;;5.97;5.50;;;24.10;99.90;;;;;;6225121;23;20725;-83
2021/07/19 09:16:26;;;;;;;7.20;6.60;;;24.20;99.90;;;;;;6223726;23;20428;-84
2021/07/19 09:19:06;;;;;;;5.93;5.43;;;24.30;99.90;;;;;;6224225;23;20405;-83
2021/07/19 09:21:35;;;;;;;7.07;5.50;;;24.50;99.90;;;;;;6227757;23;20409;-85
2021/07/19 09:24:06;;;;;;;6.33;5.73;;;24.60;99.90;;;;;;6231211;23;20409;-85
2021/07/19 09:26:33;;;;;;;6.50;6.00;;;24.70;99.90;;;;;;6231662;23;20399;-85
2021/07/19 09:29:01;;;;;;;6.27;5.80;;;24.80;99.90;;;;;;6227252;23;20398;-86
2021/07/19 09:31:37;;;;;;;6.27;5.13;;;25.00;99.90;;;;;;6228946;23;20393;-84
2021/07/19 09:34:05;;;;;;;5.60;5.20;;;25.10;99.00;;;;;;6224807;23;20404;-82
2021/07/19 09:36:32;;;;;;;6.97;6.37;;;25.20;99.30;;;;;;6220454;23;20465;-81
2021/07/19 09:39:07;;;;;;;4.90;4.60;;;25.30;98.90;;;;;;6220021;23;20408;-83
2021/07/19 09:41:34;;;;;;;6.83;5.40;;;25.40;98.70;;;;;;6225660;23;20407;-87
2021/07/19 09:44:01;;;;;;;5.47;5.07;;;25.50;98.60;;;;;;6232003;23;20917;-85
2021/07/19 09:46:36;;;;;;;4.77;4.37;;;25.60;98.30;;;;;;6231331;23;20426;-85
2021/07/19 09:49:04;;;;;;;6.27;5.60;;;25.70;98.00;;;;;;6231402;23;20408;-82
2021/07/19 09:51:33;;;;;;;5.60;5.30;;;25.70;97.40;;;;;;6227015;23;20411;-82
2021/07/19 09:54:10;;;;;;;5.43;5.03;;;25.80;98.00;;;;;;6231532;23;20410;-84
2021/07/19 09:56:37;;;;;;;6.50;5.93;;;25.90;98.60;;;;;;6232740;23;20931;-85
2021/07/19 09:59:08;;;;;;;5.80;5.30;;;26.00;97.70;;;;;;6233221;23;20411;-83
2021/07/19 10:01:38;;;;;;;5.83;5.33;;;26.10;96.90;;;;;;6229457;23;20410;-82
2021/07/19 10:04:10;;;;;;;6.03;5.43;;;26.10;96.40;;;;;;6226499;23;20415;-82
2021/07/19 10:06:38;;;;;;;7.30;5.57;;;26.10;96.60;;;;;;6224385;23;20435;-82
2021/07/19 10:09:08;;;;;;;5.50;5.00;;;26.10;96.00;;;;;;6227715;23;20475;-85
2021/07/19 10:11:38;;;;;;;5.87;5.47;;;26.30;97.10;;;;;;6231993;23;20420;-84
2021/07/19 10:14:06;;;;;;;4.67;4.27;;;26.50;97.20;;;;;;6232611;23;20413;-84
2021/07/19 10:16:34;;;;;;;5.40;4.97;;;26.60;96.50;;;;;;6231333;23;20433;-84
2021/07/19 10:19:04;;;;;;;5.00;4.43;;;26.60;95.30;;;;;;6225131;23;20803;-85
2021/07/19 10:21:33;;;;;;;5.70;5.20;;;26.50;95.10;;;;;;6226478;23;20431;-82
2021/07/19 10:24:01;;;;;;;6.03;5.53;;;26.50;96.00;;;;;;6222234;23;20476;-81
2021/07/19 10:26:29;;;;;;;5.40;4.90;;;26.40;95.50;;;;;;6221613;23;20741;-82
2021/07/19 10:28:58;;;;;;;6.23;5.73;;;26.40;95.40;;;;;;6225350;23;20506;-84
2021/07/19 10:31:25;;;;;;;5.00;4.47;;;26.40;96.60;;;;;;6227413;23;20442;-83
2021/07/19 10:33:53;;;;;;;5.33;4.83;;;26.50;95.20;;;;;;6225610;23;20404;-84
2021/07/19 10:36:32;;;;;;;5.00;4.30;;;26.60;94.70;;;;;;6226495;23;20436;-83
2021/07/19 10:39:02;;;;;;;4.93;4.53;;;26.80;93.90;;;;;;6200885;23;20403;-84
2021/07/19 10:41:29;;;;;;;4.70;4.30;;;27.00;94.10;;;;;;6225567;23;20406;-84
2021/07/19 10:44:12;;;;;;;6.50;6.00;;;27.20;93.70;;;;;;6231396;23;20459;-84
2021/07/19 10:46:41;;;;;;;4.60;4.20;;;27.40;93.80;;;;;;6224438;23;20404;-84
2021/07/19 10:49:10;;;;;;;4.77;4.40;;;27.80;92.80;;;;;;6217841;23;20892;-82
2021/07/19 10:51:45;;;;;;;5.30;4.20;;;27.90;92.90;;;;;;6219066;23;20408;-83
2021/07/19 10:54:18;;;;;;;5.20;4.80;;;27.90;92.10;;;;;;6218575;23;20387;-83
2021/07/19 10:56:44;;;;;;;4.90;4.50;;;27.90;92.00;;;;;;6218618;23;20413;-82
2021/07/19 10:59:23;;;;;;;5.27;4.77;;;27.50;90.70;;;;;;6219342;23;20414;-83
2021/07/19 11:01:54;;;;;;;4.97;4.57;;;27.30;91.80;;;;;;6218241;23;20403;-83
2021/07/19 11:04:22;;;;;;;4.47;4.17;;;27.10;92.00;;;;;;6219569;23;20926;-84
2021/07/19 11:06:57;;;;;;;5.90;5.10;;;27.20;92.40;;;;;;6220370;23;20409;-84
2021/07/19 11:09:34;;;;;;;4.40;4.10;;;27.40;92.70;;;;;;6221172;23;20389;-82
2021/07/19 11:12:08;;;;;;;6.57;6.07;;;27.40;91.90;;;;;;6218680;23;20938;-83
2021/07/19 11:14:43;;;;;;;5.20;4.80;;;27.40;91.50;;;;;;6219360;23;20434;-82
2021/07/19 11:17:11;;;;;;;4.27;3.97;;;27.30;91.90;;;;;;6224683;23;20388;-84
2021/07/19 11:19:39;;;;;;;4.83;4.37;;;27.10;92.00;;;;;;6225850;23;20414;-81
2021/07/19 11:22:09;;;;;;;6.40;3.67;;;27.00;92.40;;;;;;6220485;23;20404;-83
2021/07/19 11:24:40;;;;;;;5.10;4.67;;;27.20;92.30;;;;;;6218544;23;20434;-82
2021/07/19 11:27:07;;;;;;;4.33;3.93;;;27.70;90.90;;;;;;6219723;23;20406;-82
2021/07/19 11:29:36;;;;;;;4.27;3.90;;;28.20;90.70;;;;;;6218722;23;20415;-83
2021/07/19 11:32:11;;;;;;;4.57;4.17;;;28.70;90.30;;;;;;6219036;23;20413;-84
2021/07/19 11:34:39;;;;;;;3.77;3.47;;;29.40;90.20;;;;;;6220541;23;20433;-83
2021/07/19 11:37:07;;;;;;;3.63;3.33;;;30.10;86.10;;;;;;6221412;23;21023;-82
2021/07/19 11:39:45;;;;;;;4.60;4.30;;;30.90;83.80;;;;;;6222994;23;20398;-82
2021/07/19 11:42:15;;;;;;;4.10;3.30;;;31.70;81.20;;;;;;6221717;23;20407;-85
2021/07/19 11:44:43;;;;;;;3.70;3.50;;;32.20;77.10;;;;;;6223470;23;20441;-84
2021/07/19 11:47:10;;;;;;;4.37;4.00;;;32.00;75.00;;;;;;6221129;23;20413;-84
2021/07/19 11:49:37;;;;;;;4.47;4.10;;;31.90;75.50;;;;;;6222363;23;20806;-84
2021/07/19 11:52:09;;;;;;;3.63;2.73;;;32.00;73.50;;;;;;6219744;23;20413;-83
2021/07/19 11:54:44;;;;;;;3.10;2.83;;;32.20;70.90;;;;;;6228473;23;20751;-84
2021/07/19 11:57:11;;;;;;;3.90;3.43;;;32.50;69.80;;;;;;6225955;23;20391;-81
2021/07/19 11:59:40;;;;;;;3.43;3.13;;;32.60;69.10;;;;;;6231010;23;20414;-83
2021/07/19 12:02:06;;;;;;;3.57;3.37;;;32.60;68.30;;;;;;6228999;23;20907;-83
2021/07/19 12:04:37;;;;;;;3.30;3.10;;;32.10;68.10;;;;;;6230111;23;20495;-82
2021/07/19 12:07:05;;;;;;;3.37;3.17;;;31.50;69.20;;;;;;6224175;23;20420;-83
2021/07/19 12:09:32;;;;;;;3.10;2.90;;;31.30;71.40;;;;;;6226502;23;20480;-82
2021/07/19 12:12:02;;;;;;;3.57;3.27;;;31.70;70.50;;;;;;6225275;23;20398;-83
2021/07/19 12:14:29;;;;;;;4.60;2.80;;;32.00;67.80;;;;;;6225876;23;20425;-83
2021/07/19 12:16:56;;;;;;;3.00;2.80;;;32.60;66.30;;;;;;6226136;23;20442;-83
2021/07/19 12:19:23;;;;;;;3.00;2.70;;;33.10;65.30;;;;;;6224563;23;20469;-83
2021/07/19 12:21:52;;;;;;;3.23;2.93;;;33.70;60.50;;;;;;6225085;23;20930;-83
2021/07/19 12:24:22;;;;;;;4.00;3.70;;;34.10;58.50;;;;;;6226220;23;20492;-82
2021/07/19 12:26:54;;;;;;;3.60;2.63;;;34.40;58.60;;;;;;6225569;23;20404;-82
2021/07/19 12:29:27;;;;;;;2.70;2.30;;;34.50;57.60;;;;;;6226165;23;20426;-82
2021/07/19 12:31:55;;;;;;;2.50;2.30;;;34.60;55.40;;;;;;6228119;23;20398;-83
2021/07/19 12:34:24;;;;;;;2.90;2.60;;;34.90;55.30;;;;;;6226072;23;20540;-83
2021/07/19 12:36:52;;;;;;;2.47;2.27;;;35.30;53.50;;;;;;6226425;23;20496;-83
2021/07/19 12:39:22;;;;;;;2.80;2.60;;;35.60;52.60;;;;;;6226396;23;20424;-83
2021/07/19 12:41:50;;;;;;;3.63;3.30;;;35.70;52.30;;;;;;6227178;23;20405;-83
2021/07/19 12:44:20;;;;;;;2.57;2.37;;;35.80;52.70;;;;;;6229184;23;20413;-83
2021/07/19 12:46:49;;;;;;;3.10;2.77;;;35.90;52.10;;;;;;6229702;23;20393;-83
2021/07/19 12:49:27;;;;;;;4.30;2.70;;;35.80;52.30;;;;;;6229884;23;20448;-83
2021/07/19 12:52:01;;;;;;;2.53;2.43;;;35.70;51.80;;;;;;6229570;23;20419;-83
2021/07/19 12:54:28;;;;;;;6.43;3.00;;;35.60;50.70;;;;;;6228771;23;20433;-83
2021/07/19 12:56:55;;;;;;;2.23;2.03;;;35.40;49.60;;;;;;6228848;23;20405;-84
2021/07/19 12:59:22;;;;;;;4.10;2.40;;;35.60;53.20;;;;;;6229335;23;20467;-83
2021/07/19 13:01:50;;;;;;;1.90;1.80;;;36.10;51.00;;;;;;6227441;23;20884;-83